createdAt,value
2018-08-13T00:01:25.684Z,55.05
2018-08-13T00:03:54.117Z,54.50
2018-08-13T00:06:22.559Z,54.73
2018-08-13T00:08:51.063Z,52.69
2018-08-13T00:11:19.500Z,52.95
2018-08-13T00:13:47.988Z,53.74
2018-08-13T00:16:16.461Z,52.62
2018-08-13T00:18:44.915Z,53.33
2018-08-13T00:21:13.318Z,53.14
2018-08-13T00:23:41.937Z,52.47
2018-08-13T00:26:10.325Z,55.07
2018-08-13T00:28:38.792Z,54.35
2018-08-13T00:31:07.276Z,54.96
2018-08-13T00:33:35.641Z,55.19
2018-08-13T00:36:04.120Z,54.94
2018-08-13T00:38:32.548Z,54.31
2018-08-13T00:41:01.015Z,55.77
2018-08-13T00:43:29.372Z,55.92
2018-08-13T00:45:57.798Z,55.53
2018-08-13T00:48:26.251Z,54.81
2018-08-13T00:50:54.653Z,54.60
2018-08-13T00:53:23.065Z,54.53
2018-08-13T00:55:51.525Z,53.81
2018-08-13T00:58:19.928Z,53.17
2018-08-13T01:00:48.339Z,52.42
2018-08-13T01:03:16.685Z,52.84
2018-08-13T01:05:45.096Z,53.13
2018-08-13T01:08:13.520Z,52.38
2018-08-13T01:10:41.939Z,52.67
2018-08-13T01:13:10.364Z,53.31
2018-08-13T01:15:38.765Z,53.30
2018-08-13T01:18:07.220Z,52.88
2018-08-13T01:20:35.637Z,53.48
2018-08-13T01:23:04.086Z,53.60
2018-08-13T01:25:32.508Z,53.47
2018-08-13T01:28:00.933Z,54.27
2018-08-13T01:30:29.356Z,52.79
2018-08-13T01:32:57.781Z,53.12
2018-08-13T01:35:26.172Z,53.20
2018-08-13T01:37:54.612Z,54.24
2018-08-13T01:40:23.049Z,53.34
2018-08-13T01:42:51.483Z,53.37
2018-08-13T01:45:19.937Z,53.88
2018-08-13T01:47:48.344Z,53.82
2018-08-13T01:50:16.824Z,53.13
2018-08-13T01:52:45.205Z,52.81
2018-08-13T01:55:13.720Z,53.42
2018-08-13T01:57:42.100Z,52.70
2018-08-13T02:00:14.102Z,53.46
2018-08-13T02:02:42.542Z,52.83
2018-08-13T02:05:10.972Z,53.75
2018-08-13T02:07:40.023Z,53.75
2018-08-13T02:10:10.982Z,53.34
2018-08-13T02:12:39.663Z,53.66
2018-08-13T02:15:08.152Z,54.14
2018-08-13T02:17:36.528Z,53.12
2018-08-13T02:20:06.443Z,52.99
2018-08-13T02:22:34.860Z,53.26
2018-08-13T02:25:03.277Z,53.96
2018-08-13T02:27:33.495Z,53.50
2018-08-13T02:30:01.910Z,53.78
2018-08-13T02:32:30.283Z,53.66
2018-08-13T02:34:58.708Z,53.79
2018-08-13T02:37:27.129Z,53.24
2018-08-13T02:39:55.567Z,55.41
2018-08-13T02:42:23.982Z,54.07
2018-08-13T02:44:52.427Z,53.37
2018-08-13T02:47:20.947Z,53.28
2018-08-13T02:49:49.409Z,54.16
2018-08-13T02:52:17.852Z,54.11
2018-08-13T02:54:46.566Z,54.45
2018-08-13T02:57:14.926Z,54.39
2018-08-13T02:59:43.361Z,54.11
2018-08-13T03:02:11.730Z,54.50
2018-08-13T03:04:40.157Z,54.69
2018-08-13T03:07:08.546Z,55.08
2018-08-13T03:09:36.932Z,54.59
2018-08-13T03:12:05.581Z,54.62
2018-08-13T03:14:34.019Z,55.21
2018-08-13T03:17:02.410Z,55.70
2018-08-13T03:19:30.844Z,55.21
2018-08-13T03:21:59.227Z,55.39
2018-08-13T03:24:27.750Z,56.67
2018-08-13T03:26:56.153Z,55.36
2018-08-13T03:29:24.568Z,55.59
2018-08-13T03:31:52.944Z,55.30
2018-08-13T03:34:21.345Z,56.47
2018-08-13T03:36:49.773Z,55.68
2018-08-13T03:39:18.155Z,55.94
2018-08-13T03:41:46.535Z,56.61
2018-08-13T03:44:14.893Z,55.07
2018-08-13T03:46:43.299Z,55.54
2018-08-13T03:49:12.695Z,55.41
2018-08-13T03:51:41.800Z,56.14
2018-08-13T03:54:10.213Z,56.96
2018-08-13T03:56:38.700Z,56.02
2018-08-13T03:59:07.102Z,57.32
2018-08-13T04:01:35.474Z,56.64
2018-08-13T04:04:03.889Z,56.19
2018-08-13T04:06:32.264Z,56.34
2018-08-13T04:09:00.959Z,56.72
2018-08-13T04:11:29.350Z,56.39
2018-08-13T04:13:57.729Z,56.14
2018-08-13T04:16:26.125Z,56.17
2018-08-13T04:18:55.367Z,56.94
2018-08-13T04:21:23.772Z,56.32
2018-08-13T04:23:52.256Z,57.50
2018-08-13T04:26:20.685Z,57.67
2018-08-13T04:28:49.318Z,57.76
2018-08-13T04:31:17.750Z,57.47
2018-08-13T04:33:46.257Z,57.80
2018-08-13T04:36:14.660Z,59.31
2018-08-13T04:38:43.130Z,57.80
2018-08-13T04:41:11.530Z,58.25
2018-08-13T04:43:39.942Z,58.73
2018-08-13T04:46:08.763Z,57.97
2018-08-13T04:48:37.113Z,58.23
2018-08-13T04:51:05.468Z,57.00
2018-08-13T04:53:33.840Z,56.82
2018-08-13T04:56:02.258Z,56.61
2018-08-13T04:58:30.669Z,56.43
2018-08-13T05:00:59.051Z,56.77
2018-08-13T05:03:27.423Z,56.39
2018-08-13T05:05:55.873Z,56.55
2018-08-13T05:08:24.249Z,56.37
2018-08-13T05:10:52.683Z,55.73
2018-08-13T05:13:21.046Z,56.33
2018-08-13T05:15:50.205Z,55.66
2018-08-13T05:18:18.576Z,56.46
2018-08-13T05:20:46.965Z,55.79
2018-08-13T05:23:15.397Z,55.89
2018-08-13T05:25:44.712Z,56.17
2018-08-13T05:28:13.080Z,55.86
2018-08-13T05:30:41.441Z,55.73
2018-08-13T05:33:09.884Z,55.29
2018-08-13T05:35:38.296Z,55.29
2018-08-13T05:38:06.702Z,54.67
2018-08-13T05:40:35.053Z,55.17
2018-08-13T05:43:03.430Z,55.20
2018-08-13T05:45:31.881Z,55.02
2018-08-13T05:48:00.253Z,55.48
2018-08-13T05:50:28.592Z,54.62
2018-08-13T05:52:57.082Z,52.96
2018-08-13T05:55:25.463Z,53.21
2018-08-13T05:57:53.810Z,52.40
2018-08-13T06:00:22.266Z,52.46
2018-08-13T06:02:50.686Z,53.11
2018-08-13T06:05:19.112Z,52.28
2018-08-13T06:07:47.529Z,52.57
2018-08-13T06:10:15.867Z,51.20
2018-08-13T06:12:44.244Z,51.65
2018-08-13T06:15:13.852Z,51.33
2018-08-13T06:17:42.232Z,51.04
2018-08-13T06:20:12.058Z,51.21
2018-08-13T06:22:41.821Z,49.75
2018-08-13T06:25:10.998Z,51.30
2018-08-13T06:27:39.473Z,51.04
2018-08-13T06:30:12.454Z,51.00
2018-08-13T06:32:41.634Z,50.56
2018-08-13T06:35:10.578Z,49.96
2018-08-13T06:37:39.275Z,49.80
2018-08-13T06:40:08.472Z,49.14
2018-08-13T06:42:37.086Z,49.18
2018-08-13T06:45:06.631Z,48.73
2018-08-13T06:47:35.136Z,48.43
2018-08-13T06:50:03.646Z,47.36
2018-08-13T06:52:32.639Z,47.40
2018-08-13T06:55:01.100Z,46.64
2018-08-13T06:57:29.648Z,46.68
2018-08-13T06:59:58.130Z,45.99
2018-08-13T07:02:26.679Z,45.24
2018-08-13T07:04:55.101Z,46.30
2018-08-13T07:07:23.565Z,41.78
2018-08-13T07:09:52.110Z,45.38
2018-08-13T07:12:20.507Z,45.14
2018-08-13T07:14:48.892Z,44.23
2018-08-13T07:17:17.304Z,41.60
2018-08-13T07:26:45.896Z,44.78
2018-08-13T07:29:14.371Z,43.02
2018-08-13T07:31:42.796Z,42.18
2018-08-13T07:34:11.222Z,42.04
2018-08-13T07:36:39.691Z,39.20
2018-08-13T07:39:09.717Z,35.15
2018-08-13T07:41:38.212Z,40.55
2018-08-13T07:44:07.182Z,39.50
2018-08-13T07:46:35.719Z,37.25
2018-08-13T07:49:04.115Z,30.93
2018-08-13T07:51:32.656Z,33.47
2018-08-13T07:54:01.000Z,30.40
2018-08-13T07:56:29.462Z,31.71
2018-08-13T07:58:57.847Z,34.68
2018-08-13T08:01:26.269Z,35.21
2018-08-13T08:03:54.677Z,33.98
2018-08-13T08:06:23.056Z,31.35
2018-08-13T08:08:51.451Z,32.16
2018-08-13T08:11:19.930Z,32.12
2018-08-13T08:13:48.305Z,31.54
2018-08-13T08:16:16.749Z,31.28
2018-08-13T08:18:45.181Z,30.46
2018-08-13T08:21:13.625Z,29.21
2018-08-13T08:23:41.944Z,28.54
2018-08-13T08:26:10.294Z,27.31
2018-08-13T08:28:38.599Z,26.85
2018-08-13T08:31:06.949Z,26.75
2018-08-13T08:33:35.270Z,27.14
2018-08-13T08:36:03.676Z,25.96
2018-08-13T08:38:32.032Z,25.54
2018-08-13T08:41:00.599Z,25.81
2018-08-13T08:43:28.876Z,24.87
2018-08-13T08:45:57.281Z,25.33
2018-08-13T08:48:25.571Z,23.15
2018-08-13T08:50:53.890Z,22.96
2018-08-13T08:53:22.268Z,24.20
2018-08-13T08:55:50.638Z,23.01
2018-08-13T08:58:19.030Z,23.46
2018-08-13T09:00:47.455Z,23.73
2018-08-13T09:03:15.774Z,23.48
2018-08-13T09:05:44.193Z,23.40
2018-08-13T09:08:12.503Z,24.29
2018-08-13T09:10:40.846Z,23.61
2018-08-13T09:13:09.215Z,24.35
2018-08-13T09:15:37.693Z,24.01
2018-08-13T09:20:13.712Z,23.66
2018-08-13T09:22:53.428Z,24.95
2018-08-13T09:25:33.059Z,22.76
2018-08-13T09:28:12.731Z,20.69
2018-08-13T09:30:52.455Z,22.33
2018-08-13T09:33:32.236Z,19.62
2018-08-13T09:36:00.679Z,21.72
2018-08-13T09:38:29.204Z,20.98
2018-08-13T09:40:57.583Z,20.72
2018-08-13T09:43:25.940Z,17.99
2018-08-13T09:45:54.291Z,18.84
2018-08-13T09:48:22.654Z,17.87
2018-08-13T09:50:50.975Z,17.34
2018-08-13T09:53:19.341Z,19.02
2018-08-13T09:55:47.690Z,18.93
2018-08-13T09:58:16.029Z,16.55
2018-08-13T10:00:49.720Z,18.76
2018-08-13T10:03:18.047Z,18.69
2018-08-13T10:05:46.388Z,19.11
2018-08-13T10:08:14.735Z,18.17
2018-08-13T10:10:43.160Z,18.03
2018-08-13T10:13:11.869Z,19.16
2018-08-13T10:15:40.252Z,17.26
2018-08-13T10:18:08.590Z,18.82
2018-08-13T10:20:36.979Z,18.40
2018-08-13T10:23:05.409Z,18.32
2018-08-13T10:25:33.778Z,18.46
2018-08-13T10:28:02.155Z,18.99
2018-08-13T10:30:30.493Z,18.84
2018-08-13T10:32:58.839Z,17.50
2018-08-13T10:35:27.216Z,16.91
2018-08-13T10:37:55.529Z,17.70
2018-08-13T10:40:23.900Z,17.33
2018-08-13T10:42:52.241Z,16.98
2018-08-13T10:45:20.602Z,16.34
2018-08-13T10:47:48.981Z,17.67
2018-08-13T10:50:17.289Z,17.89
2018-08-13T10:52:45.628Z,18.94
2018-08-13T10:55:15.235Z,17.58
2018-08-13T10:57:43.828Z,17.38
2018-08-13T11:00:14.656Z,17.96
2018-08-13T11:02:43.130Z,18.51
2018-08-13T11:05:12.653Z,18.86
2018-08-13T11:07:41.039Z,18.46
2018-08-13T11:10:11.184Z,18.45
2018-08-13T11:12:39.551Z,18.67
2018-08-13T11:15:14.903Z,18.90
2018-08-13T11:17:43.277Z,19.69
2018-08-13T11:20:11.667Z,20.50
2018-08-13T11:22:41.254Z,20.59
2018-08-13T11:25:11.471Z,20.43
2018-08-13T11:27:39.912Z,21.02
2018-08-13T11:30:10.586Z,21.30
2018-08-13T11:32:38.949Z,21.10
2018-08-13T11:35:07.739Z,22.23
2018-08-13T11:37:36.531Z,21.49
2018-08-13T11:40:08.629Z,21.63
2018-08-13T11:42:36.995Z,21.45
2018-08-13T11:45:05.490Z,21.72
2018-08-13T11:47:33.855Z,21.79
2018-08-13T11:50:02.217Z,22.67
2018-08-13T11:52:30.590Z,23.46
2018-08-13T11:54:58.970Z,23.09
2018-08-13T11:57:27.555Z,23.06
2018-08-13T11:59:55.960Z,22.85
2018-08-13T12:02:24.298Z,23.95
2018-08-13T12:04:52.646Z,23.74
2018-08-13T12:07:21.000Z,23.47
2018-08-13T12:09:49.388Z,24.34
2018-08-13T12:12:17.736Z,24.33
2018-08-13T12:14:46.074Z,25.04
2018-08-13T12:17:14.413Z,24.53
2018-08-13T12:19:42.927Z,24.55
2018-08-13T12:22:11.270Z,24.56
2018-08-13T12:24:40.517Z,24.17
2018-08-13T12:27:08.906Z,25.22
2018-08-13T12:29:37.239Z,24.97
2018-08-13T12:32:05.564Z,24.15
2018-08-13T12:34:33.928Z,24.53
2018-08-13T12:37:08.202Z,24.50
2018-08-13T12:39:37.177Z,24.66
2018-08-13T12:42:05.871Z,25.49
2018-08-13T12:44:34.212Z,24.70
2018-08-13T12:47:02.628Z,25.10
2018-08-13T12:49:31.016Z,24.68
2018-08-13T12:51:59.384Z,25.34
2018-08-13T12:54:27.758Z,25.87
2018-08-13T12:56:56.114Z,25.39
2018-08-13T12:59:24.475Z,24.69
2018-08-13T13:01:52.812Z,25.64
2018-08-13T13:04:21.216Z,25.33
2018-08-13T13:06:49.557Z,25.58
2018-08-13T13:09:17.936Z,24.58
2018-08-13T13:11:46.330Z,25.02
2018-08-13T13:14:14.701Z,26.58
2018-08-13T13:16:43.085Z,25.77
2018-08-13T13:19:11.464Z,25.37
2018-08-13T13:21:39.845Z,24.51
2018-08-13T13:24:08.218Z,24.64
2018-08-13T13:26:36.797Z,24.75
2018-08-13T13:29:05.593Z,25.58
2018-08-13T13:31:33.964Z,26.20
2018-08-13T13:34:02.370Z,25.31
2018-08-13T13:36:30.731Z,24.78
2018-08-13T13:38:59.112Z,24.84
2018-08-13T13:41:27.508Z,26.77
2018-08-13T13:43:55.860Z,26.11
2018-08-13T13:46:24.393Z,26.56
2018-08-13T13:48:52.738Z,27.44
2018-08-13T13:51:21.120Z,27.14
2018-08-13T13:53:49.534Z,27.20
2018-08-13T13:56:17.941Z,28.07
2018-08-13T13:58:46.340Z,28.02
2018-08-13T14:01:14.716Z,28.38
2018-08-13T14:03:43.111Z,27.39
2018-08-13T14:06:11.486Z,28.13
2018-08-13T14:08:39.845Z,28.41
2018-08-13T14:11:08.299Z,28.06
2018-08-13T14:13:36.680Z,28.23
2018-08-13T14:16:05.105Z,28.58
2018-08-13T14:18:33.497Z,28.41
2018-08-13T14:21:01.856Z,28.47
2018-08-13T14:23:30.317Z,28.56
2018-08-13T14:25:58.691Z,28.98
2018-08-13T14:28:27.082Z,28.70
2018-08-13T14:30:55.437Z,28.75
2018-08-13T14:33:23.816Z,29.14
2018-08-13T14:35:52.228Z,29.08
2018-08-13T14:38:20.614Z,30.63
2018-08-13T14:40:48.988Z,30.29
2018-08-13T14:43:17.412Z,30.65
2018-08-13T14:45:45.795Z,29.90
2018-08-13T14:48:14.160Z,30.25
2018-08-13T14:50:42.505Z,31.21
2018-08-13T14:53:10.858Z,30.72
2018-08-13T14:55:39.198Z,31.30
2018-08-13T14:58:07.588Z,31.60
2018-08-13T15:00:37.643Z,31.52
2018-08-13T15:03:10.086Z,31.40
2018-08-13T15:05:38.861Z,31.99
2018-08-13T15:08:07.231Z,32.31
2018-08-13T15:10:35.617Z,32.88
2018-08-13T15:13:04.090Z,32.95
2018-08-13T15:15:32.389Z,32.43
2018-08-13T15:18:01.059Z,33.52
2018-08-13T15:20:31.058Z,32.94
2018-08-13T15:22:59.424Z,33.06
2018-08-13T15:25:28.300Z,33.49
2018-08-13T15:27:56.727Z,33.49
2018-08-13T15:30:25.676Z,33.84
2018-08-13T15:32:54.477Z,34.51
2018-08-13T15:35:22.975Z,34.41
2018-08-13T15:37:51.650Z,35.55
2018-08-13T15:40:20.229Z,34.63
2018-08-13T15:42:48.609Z,35.61
2018-08-13T15:45:19.133Z,35.36
2018-08-13T15:47:48.146Z,34.62
2018-08-13T15:50:17.592Z,35.42
2018-08-13T15:52:46.322Z,36.72
2018-08-13T15:55:15.210Z,37.26
2018-08-13T15:57:44.505Z,36.32
2018-08-13T16:00:16.013Z,36.60
2018-08-13T16:02:44.419Z,36.29
2018-08-13T16:05:13.023Z,37.70
2018-08-13T16:07:41.483Z,37.53
2018-08-13T16:10:12.766Z,37.76
2018-08-13T16:12:41.340Z,39.06
2018-08-13T16:15:10.028Z,38.61
2018-08-13T16:17:39.112Z,38.68
2018-08-13T16:20:10.064Z,38.85
2018-08-13T16:22:38.489Z,38.42
2018-08-13T16:25:07.327Z,38.98
2018-08-13T16:27:35.684Z,40.11
2018-08-13T16:30:09.964Z,40.91
2018-08-13T16:32:38.298Z,41.43
2018-08-13T16:35:06.684Z,41.85
2018-08-13T16:37:35.057Z,42.48
2018-08-13T16:40:04.061Z,44.57
2018-08-13T16:42:32.436Z,42.38
2018-08-13T16:45:00.889Z,42.93
2018-08-13T16:47:29.296Z,42.49
2018-08-13T16:49:57.672Z,45.05
2018-08-13T16:52:26.050Z,44.67
2018-08-13T16:54:54.427Z,44.06
2018-08-13T16:57:22.811Z,43.93
2018-08-13T16:59:51.196Z,44.29
2018-08-13T17:02:19.661Z,44.73
2018-08-13T17:04:48.091Z,45.31
2018-08-13T17:07:16.499Z,44.34
2018-08-13T17:09:44.884Z,44.81
2018-08-13T17:12:13.234Z,45.79
2018-08-13T17:14:41.952Z,45.21
2018-08-13T17:17:10.329Z,45.43
2018-08-13T17:19:38.707Z,45.54
2018-08-13T17:22:07.286Z,45.90
2018-08-13T17:24:35.628Z,45.83
2018-08-13T17:27:04.054Z,45.55
2018-08-13T17:29:32.429Z,45.89
2018-08-13T17:32:00.811Z,46.17
2018-08-13T17:34:29.179Z,46.40
2018-08-13T17:36:57.566Z,48.29
2018-08-13T17:39:25.919Z,46.50
2018-08-13T17:41:54.287Z,46.37
2018-08-13T17:44:22.663Z,46.40
2018-08-13T17:46:51.005Z,47.62
2018-08-13T17:49:19.351Z,46.85
2018-08-13T17:51:47.681Z,47.02
2018-08-13T17:54:16.087Z,47.05
2018-08-13T17:56:44.498Z,46.89
2018-08-13T17:59:12.892Z,47.05
2018-08-13T18:01:41.310Z,47.23
2018-08-13T18:04:09.757Z,47.36
2018-08-13T18:06:38.149Z,48.23
2018-08-13T18:09:09.799Z,49.60
2018-08-13T18:11:38.244Z,48.13
2018-08-13T18:14:06.941Z,49.27
2018-08-13T18:16:35.842Z,48.18
2018-08-13T18:19:04.282Z,48.13
2018-08-13T18:21:32.663Z,51.17
2018-08-13T18:24:01.071Z,48.15
2018-08-13T18:26:29.471Z,49.12
2018-08-13T18:28:58.007Z,49.41
2018-08-13T18:31:26.379Z,51.50
2018-08-13T18:33:54.762Z,48.95
2018-08-13T18:36:23.114Z,50.76
2018-08-13T18:38:51.472Z,50.09
2018-08-13T18:41:19.851Z,49.96
2018-08-13T18:43:48.227Z,52.63
2018-08-13T18:46:16.573Z,51.82
2018-08-13T18:48:44.943Z,50.96
2018-08-13T18:51:13.318Z,51.78
2018-08-13T18:53:41.760Z,52.96
2018-08-13T18:56:10.093Z,51.62
2018-08-13T18:58:38.555Z,52.06
2018-08-13T19:01:06.890Z,52.25
2018-08-13T19:03:35.269Z,52.37
2018-08-13T19:06:03.623Z,52.54
2018-08-13T19:08:31.968Z,52.32
2018-08-13T19:11:00.332Z,53.25
2018-08-13T19:13:28.728Z,52.72
2018-08-13T19:15:57.093Z,52.86
2018-08-13T19:18:25.536Z,53.16
2018-08-13T19:22:18.259Z,53.11
2018-08-13T19:24:46.576Z,52.75
2018-08-13T19:27:14.946Z,53.62
2018-08-13T19:29:43.276Z,52.51
2018-08-13T19:32:11.683Z,53.08
2018-08-13T19:34:40.120Z,55.09
2018-08-13T19:37:08.470Z,53.55
2018-08-13T19:39:36.922Z,54.08
2018-08-13T19:42:05.292Z,54.88
2018-08-13T19:44:33.766Z,54.09
2018-08-13T19:47:02.120Z,54.77
2018-08-13T19:49:30.588Z,54.52
2018-08-13T19:51:59.011Z,54.81
2018-08-13T19:54:27.375Z,54.61
2018-08-13T19:56:55.738Z,55.00
2018-08-13T19:59:24.101Z,56.48
2018-08-13T20:01:52.478Z,55.15
2018-08-13T20:04:21.148Z,55.57
2018-08-13T20:06:49.529Z,56.03
2018-08-13T20:09:17.900Z,56.33
2018-08-13T20:11:50.880Z,56.90
2018-08-13T20:14:19.233Z,56.64
2018-08-13T20:16:47.630Z,56.03
2018-08-13T20:19:16.124Z,58.15
2018-08-13T20:21:44.546Z,56.98
2018-08-13T20:24:13.029Z,58.52
2018-08-13T20:26:41.477Z,59.75
2018-08-13T20:29:10.260Z,58.04
2018-08-13T20:31:38.689Z,58.87
2018-08-13T20:34:07.908Z,60.16
2018-08-13T20:36:36.636Z,59.81
2018-08-13T20:39:11.782Z,60.95
2018-08-13T20:41:40.197Z,59.54
2018-08-13T20:44:09.131Z,59.58
2018-08-13T20:46:37.511Z,59.36
2018-08-13T20:49:06.406Z,61.46
2018-08-13T20:51:35.119Z,60.74
2018-08-13T20:54:03.900Z,60.15
2018-08-13T20:56:32.312Z,60.14
2018-08-13T20:59:00.705Z,60.94
2018-08-13T21:01:29.163Z,59.69
2018-08-13T21:03:57.642Z,60.09
2018-08-13T21:06:26.019Z,64.41
2018-08-13T21:08:54.427Z,61.50
2018-08-13T21:11:22.775Z,60.91
2018-08-13T21:13:51.141Z,60.70
2018-08-13T21:16:19.690Z,61.92
2018-08-13T21:18:48.087Z,61.85
2018-08-13T21:21:16.459Z,61.11
2018-08-13T21:23:44.837Z,61.30
2018-08-13T21:26:13.230Z,60.45
2018-08-13T21:28:41.594Z,60.81
2018-08-13T21:31:10.038Z,60.77
2018-08-13T21:33:38.423Z,62.84
2018-08-13T21:36:06.801Z,61.42
2018-08-13T21:38:35.160Z,63.11
2018-08-13T21:41:03.579Z,62.86
2018-08-13T21:43:32.198Z,62.21
2018-08-13T21:46:00.621Z,62.10
2018-08-13T21:48:29.019Z,62.15
2018-08-13T21:50:57.555Z,62.48
2018-08-13T21:53:25.982Z,62.58
2018-08-13T21:55:55.281Z,62.83
2018-08-13T21:58:23.791Z,63.04
2018-08-13T22:00:57.778Z,62.84
2018-08-13T22:03:27.215Z,62.96
2018-08-13T22:05:55.719Z,63.42
2018-08-13T22:08:24.295Z,63.29
2018-08-13T22:10:52.732Z,62.56
2018-08-13T22:13:21.205Z,62.68
2018-08-13T22:15:49.720Z,62.82
2018-08-13T22:18:20.452Z,63.61
2018-08-13T22:20:48.956Z,63.34
2018-08-13T22:23:17.904Z,64.18
2018-08-13T22:25:47.202Z,65.15
2018-08-13T22:28:17.263Z,63.32
2018-08-13T22:30:46.064Z,65.42
2018-08-13T22:33:16.132Z,63.59
2018-08-13T22:35:45.653Z,63.92
2018-08-13T22:38:14.090Z,64.02
2018-08-13T22:40:42.500Z,63.83
2018-08-13T22:43:10.897Z,63.41
2018-08-13T22:45:39.349Z,63.97
2018-08-13T22:48:07.834Z,64.44
2018-08-13T22:50:36.255Z,63.77
2018-08-13T22:53:04.681Z,64.09
2018-08-13T22:55:33.177Z,64.16
2018-08-13T22:58:01.684Z,64.96
2018-08-13T23:00:31.780Z,63.59
2018-08-13T23:03:00.280Z,63.41
2018-08-13T23:05:29.035Z,63.91
2018-08-13T23:07:57.447Z,64.87
2018-08-13T23:10:26.244Z,64.16
2018-08-13T23:12:56.133Z,64.43
2018-08-13T23:15:24.792Z,64.15
2018-08-13T23:17:54.014Z,64.11
2018-08-13T23:20:25.509Z,66.10
2018-08-13T23:23:01.375Z,64.44
2018-08-13T23:25:30.483Z,64.87
2018-08-13T23:27:59.945Z,65.03
2018-08-13T23:30:28.686Z,65.87
2018-08-13T23:32:57.944Z,64.82
2018-08-13T23:35:27.052Z,65.49
2018-08-13T23:37:55.587Z,65.43
2018-08-13T23:40:24.680Z,66.55
2018-08-13T23:42:53.174Z,64.98
2018-08-13T23:45:23.600Z,66.54
2018-08-13T23:47:51.968Z,65.40
2018-08-13T23:50:22.125Z,65.99
2018-08-13T23:52:51.629Z,65.43
2018-08-13T23:55:26.976Z,65.93
2018-08-13T23:57:55.755Z,65.21
